Time;durP1;ratioP1;P1;durP2;ratioP2;P2;SDS_P1;SDS_P2;PMS_P1;PMS_P2;Temp;Humidity;BMP_temperature;BMP_pressure;BME280_temperature;BME280_humidity;BME280_pressure;Samples;Min_cycle;Max_cycle;Signal;HPM_P1;HPM_P2
2021/12/31 00:00:22;;;;;;;2.77;1.50;;;15.60;99.90;;;;;;5074196;28;20362;-66
2021/12/31 00:02:49;;;;;;;2.60;1.33;;;15.60;99.90;;;;;;5073896;28;20260;-66
2021/12/31 00:05:16;;;;;;;1.97;1.30;;;15.60;99.90;;;;;;5074167;28;20725;-65
2021/12/31 00:07:43;;;;;;;2.20;1.00;;;15.60;99.90;;;;;;5073966;28;20568;-66
2021/12/31 00:10:10;;;;;;;3.72;2.03;;;15.50;99.90;;;;;;5071840;28;20541;-66
2021/12/31 00:12:37;;;;;;;7.70;2.30;;;15.50;99.90;;;;;;5073478;28;20201;-68
2021/12/31 00:15:05;;;;;;;1.93;1.53;;;15.50;99.90;;;;;;5073914;28;20212;-69
2021/12/31 00:17:33;;;;;;;2.37;1.30;;;15.60;99.90;;;;;;5073640;28;20201;-69
2021/12/31 00:20:04;;;;;;;2.00;1.20;;;15.60;99.90;;;;;;5073777;28;20643;-68
2021/12/31 00:22:58;;;;;;;5.23;1.50;;;15.50;99.90;;;;;;5073728;28;20240;-67
2021/12/31 00:25:25;;;;;;;2.23;1.23;;;15.30;99.90;;;;;;5073805;28;20205;-70
2021/12/31 00:27:52;;;;;;;3.00;1.20;;;15.20;99.90;;;;;;5073602;28;20267;-68
2021/12/31 00:30:18;;;;;;;2.23;1.10;;;15.30;99.90;;;;;;5073706;28;20233;-69
2021/12/31 00:32:47;;;;;;;2.03;1.00;;;15.30;99.90;;;;;;5066172;28;20219;-69
2021/12/31 00:35:13;;;;;;;1.63;1.10;;;15.30;99.90;;;;;;5073205;28;20672;-71
2021/12/31 00:37:41;;;;;;;1.80;1.07;;;15.30;99.90;;;;;;5073661;28;20205;-70
2021/12/31 00:40:10;;;;;;;1.67;0.77;;;15.30;99.90;;;;;;5073212;28;20237;-71
2021/12/31 00:42:38;;;;;;;1.30;0.90;;;15.30;99.90;;;;;;5072908;28;20617;-69
2021/12/31 00:45:06;;;;;;;0.97;0.90;;;15.30;99.90;;;;;;5073526;28;20281;-66
2021/12/31 00:47:33;;;;;;;2.80;0.87;;;15.30;99.90;;;;;;5073584;28;20224;-66
2021/12/31 00:50:01;;;;;;;1.73;1.00;;;15.30;99.90;;;;;;5073400;28;20232;-66
2021/12/31 00:52:28;;;;;;;4.17;1.20;;;15.30;99.90;;;;;;5073098;28;20208;-66
2021/12/31 00:54:55;;;;;;;2.90;1.00;;;15.30;99.90;;;;;;5073214;28;20204;-65
2021/12/31 00:57:21;;;;;;;1.73;0.90;;;15.30;99.90;;;;;;5073456;28;20256;-66
2021/12/31 00:59:48;;;;;;;1.90;0.90;;;15.30;99.90;;;;;;5073328;28;20232;-66
2021/12/31 01:02:16;;;;;;;1.87;1.00;;;15.20;99.90;;;;;;5072919;28;20207;-65
2021/12/31 01:04:43;;;;;;;1.20;0.80;;;15.10;99.90;;;;;;5073229;28;20213;-66
2021/12/31 01:07:11;;;;;;;1.17;0.83;;;15.10;99.90;;;;;;5073057;28;20296;-66
2021/12/31 01:09:38;;;;;;;1.93;1.20;;;15.20;99.90;;;;;;5072949;28;20224;-66
2021/12/31 01:12:09;;;;;;;1.70;1.10;;;15.20;99.90;;;;;;5072851;28;20209;-66
2021/12/31 01:14:38;;;;;;;6.80;2.80;;;15.20;99.90;;;;;;5073321;28;20303;-66
2021/12/31 01:17:08;;;;;;;2.83;1.30;;;15.30;99.90;;;;;;5072872;28;20212;-66
2021/12/31 01:19:46;;;;;;;2.60;1.30;;;15.30;99.90;;;;;;5072880;28;20229;-66
2021/12/31 01:22:15;;;;;;;2.20;1.20;;;15.40;99.90;;;;;;5072473;28;20212;-66
2021/12/31 01:24:43;;;;;;;2.30;1.13;;;15.40;99.90;;;;;;5072885;28;20204;-66
2021/12/31 01:27:10;;;;;;;1.33;0.80;;;15.40;99.90;;;;;;5073065;28;20208;-66
2021/12/31 01:29:37;;;;;;;1.00;0.83;;;15.40;99.90;;;;;;5072549;28;20221;-66
2021/12/31 01:32:05;;;;;;;1.47;1.00;;;15.40;99.90;;;;;;5072311;28;20582;-66
2021/12/31 01:34:33;;;;;;;2.27;0.90;;;15.40;99.90;;;;;;5072352;28;20201;-66
2021/12/31 01:37:00;;;;;;;2.70;1.10;;;15.40;99.90;;;;;;5072447;28;20212;-66
2021/12/31 01:39:28;;;;;;;1.23;0.80;;;15.30;99.90;;;;;;5073119;28;20228;-68
2021/12/31 01:41:58;;;;;;;2.30;1.30;;;15.40;99.90;;;;;;5072189;28;20201;-68
2021/12/31 01:44:28;;;;;;;3.93;1.20;;;15.30;99.90;;;;;;5071854;28;20213;-67
2021/12/31 01:46:56;;;;;;;2.07;1.50;;;15.30;99.90;;;;;;5072687;28;20208;-68
2021/12/31 01:49:27;;;;;;;1.67;0.77;;;15.30;99.90;;;;;;5072514;28;20657;-67
2021/12/31 01:51:54;;;;;;;1.10;0.93;;;15.40;99.90;;;;;;5072171;28;20219;-68
2021/12/31 01:54:21;;;;;;;1.00;0.90;;;15.40;99.90;;;;;;5072807;28;20216;-67
2021/12/31 01:56:50;;;;;;;2.57;1.07;;;15.40;99.90;;;;;;5072321;28;20280;-68
2021/12/31 01:59:17;;;;;;;1.93;0.80;;;15.40;99.90;;;;;;5072647;28;20221;-68
2021/12/31 02:01:45;;;;;;;1.43;1.20;;;15.40;99.90;;;;;;5071989;28;20205;-68
2021/12/31 02:04:12;;;;;;;2.17;1.00;;;15.40;99.90;;;;;;5071985;28;20209;-68
2021/12/31 02:06:39;;;;;;;1.63;0.90;;;15.40;99.90;;;;;;5072115;28;20208;-68
2021/12/31 02:09:07;;;;;;;2.60;1.23;;;15.40;99.90;;;;;;5071981;28;20232;-68
2021/12/31 02:11:34;;;;;;;2.10;1.00;;;15.40;99.90;;;;;;5071935;28;20587;-67
2021/12/31 02:14:03;;;;;;;2.77;0.90;;;15.30;99.90;;;;;;5071725;28;20212;-68
2021/12/31 02:16:32;;;;;;;19.87;15.87;;;15.20;99.90;;;;;;5072042;28;20232;-68
2021/12/31 02:18:58;;;;;;;3.93;3.07;;;15.20;99.90;;;;;;5072180;28;20267;-68
2021/12/31 02:21:26;;;;;;;1.90;1.07;;;15.20;99.90;;;;;;5072075;28;20208;-68
2021/12/31 02:23:56;;;;;;;1.93;1.00;;;15.20;99.90;;;;;;5072071;28;20204;-67
2021/12/31 02:26:23;;;;;;;2.40;1.13;;;15.20;99.90;;;;;;5072066;28;20208;-67
2021/12/31 02:28:49;;;;;;;1.20;1.10;;;15.10;99.90;;;;;;5071906;28;20233;-68
2021/12/31 02:31:16;;;;;;;1.17;0.90;;;15.00;99.90;;;;;;5072422;28;20208;-67
2021/12/31 02:33:43;;;;;;;2.30;1.00;;;14.90;99.90;;;;;;5071442;28;20627;-68
2021/12/31 02:36:10;;;;;;;1.77;0.90;;;14.80;99.90;;;;;;5072142;28;20212;-67
2021/12/31 02:38:38;;;;;;;2.03;1.20;;;14.80;99.90;;;;;;5071679;28;20655;-67
2021/12/31 02:41:05;;;;;;;2.13;0.90;;;14.80;99.90;;;;;;5071837;28;20254;-67
2021/12/31 02:43:32;;;;;;;1.73;1.00;;;14.60;99.90;;;;;;5071364;28;20589;-67
2021/12/31 02:45:58;;;;;;;3.47;1.20;;;14.50;99.90;;;;;;5071807;28;20216;-67
2021/12/31 02:48:25;;;;;;;1.00;0.90;;;14.40;99.90;;;;;;5071740;28;20254;-67
2021/12/31 02:50:54;;;;;;;1.33;1.00;;;14.30;99.90;;;;;;5071705;28;20266;-67
2021/12/31 02:53:25;;;;;;;1.33;0.87;;;14.10;99.90;;;;;;5071476;28;20266;-68
2021/12/31 02:56:00;;;;;;;3.03;1.43;;;14.00;99.90;;;;;;5071762;28;20627;-67
2021/12/31 02:58:28;;;;;;;2.30;1.43;;;13.80;99.90;;;;;;5075635;28;20307;-67
2021/12/31 03:00:55;;;;;;;4.10;1.63;;;13.70;99.90;;;;;;5075777;28;20207;-67
2021/12/31 03:03:23;;;;;;;1.20;1.07;;;13.60;99.90;;;;;;5075322;28;20209;-67
2021/12/31 03:05:53;;;;;;;1.97;1.30;;;13.50;99.90;;;;;;5075288;28;20684;-67
2021/12/31 03:08:21;;;;;;;3.33;1.30;;;13.40;99.90;;;;;;5075114;28;20230;-67
2021/12/31 03:10:48;;;;;;;2.27;1.20;;;13.20;99.90;;;;;;5075453;28;20208;-67
2021/12/31 03:13:17;;;;;;;1.60;1.30;;;13.10;99.90;;;;;;5075236;28;20208;-67
2021/12/31 03:15:44;;;;;;;1.50;1.00;;;13.10;99.90;;;;;;5075085;28;20208;-67
2021/12/31 03:18:11;;;;;;;2.73;1.10;;;12.90;99.90;;;;;;5075195;28;20204;-67
2021/12/31 03:20:42;;;;;;;1.90;1.10;;;12.90;99.90;;;;;;5075288;28;20220;-67
2021/12/31 03:23:09;;;;;;;1.83;0.97;;;12.80;99.90;;;;;;5074839;28;20274;-67
2021/12/31 03:25:36;;;;;;;2.33;1.20;;;12.60;99.90;;;;;;5075072;28;20248;-68
2021/12/31 03:28:03;;;;;;;2.63;1.13;;;12.30;99.90;;;;;;5074845;28;20207;-67
2021/12/31 03:30:31;;;;;;;1.57;1.10;;;12.30;99.90;;;;;;5075160;28;20213;-67
2021/12/31 03:32:58;;;;;;;1.50;1.10;;;12.30;99.90;;;;;;5075003;28;20212;-67
2021/12/31 03:35:25;;;;;;;3.30;1.20;;;12.30;99.90;;;;;;5074767;28;20201;-67
2021/12/31 03:37:54;;;;;;;1.93;1.10;;;12.30;99.90;;;;;;5075153;28;20266;-67
2021/12/31 03:40:20;;;;;;;1.67;1.27;;;12.30;99.90;;;;;;5074771;28;20755;-67
2021/12/31 03:42:47;;;;;;;4.03;1.30;;;12.30;99.90;;;;;;5074567;28;20212;-67
2021/12/31 03:45:14;;;;;;;1.87;1.20;;;12.20;99.90;;;;;;5074739;28;20589;-67
2021/12/31 03:47:42;;;;;;;2.97;1.30;;;12.10;99.90;;;;;;5074681;28;20209;-67
2021/12/31 03:50:09;;;;;;;1.67;1.33;;;12.00;99.90;;;;;;5074321;28;20278;-67
2021/12/31 03:52:38;;;;;;;2.40;1.40;;;12.00;99.90;;;;;;5074548;28;20629;-67
2021/12/31 03:55:07;;;;;;;3.03;1.47;;;12.00;99.90;;;;;;5074714;28;20292;-67
2021/12/31 03:57:33;;;;;;;1.73;1.33;;;12.00;99.90;;;;;;5074445;28;20292;-67
2021/12/31 04:00:00;;;;;;;3.23;1.03;;;11.90;99.90;;;;;;5074325;28;20217;-67
2021/12/31 04:02:27;;;;;;;3.70;1.40;;;11.90;99.90;;;;;;5074003;28;20209;-67
2021/12/31 04:04:55;;;;;;;1.97;1.50;;;11.90;99.90;;;;;;5074220;28;20204;-67
2021/12/31 04:07:22;;;;;;;2.30;1.60;;;11.80;99.90;;;;;;5073977;28;20212;-67
2021/12/31 04:09:49;;;;;;;1.97;1.40;;;11.80;99.90;;;;;;5074218;28;20278;-67
2021/12/31 04:12:16;;;;;;;3.53;1.70;;;11.80;99.90;;;;;;5074073;28;20583;-67
2021/12/31 04:14:43;;;;;;;3.60;1.37;;;11.70;99.90;;;;;;5074157;28;20208;-67
2021/12/31 04:17:10;;;;;;;3.63;1.67;;;11.70;99.90;;;;;;5073893;28;20664;-66
2021/12/31 04:19:36;;;;;;;3.37;1.80;;;11.70;99.90;;;;;;5074139;28;20225;-67
2021/12/31 04:22:07;;;;;;;2.53;1.50;;;11.60;99.90;;;;;;5073908;28;20586;-66
2021/12/31 04:24:52;;;;;;;2.43;1.63;;;11.60;99.90;;;;;;5073668;28;20632;-66
2021/12/31 04:27:20;;;;;;;3.10;2.23;;;11.70;99.90;;;;;;5073847;28;20212;-66
2021/12/31 04:29:51;;;;;;;3.07;2.00;;;11.80;99.90;;;;;;5073926;28;20233;-66
2021/12/31 04:32:19;;;;;;;3.63;2.10;;;11.80;99.90;;;;;;5073804;28;20208;-66
2021/12/31 04:34:46;;;;;;;3.30;2.30;;;11.80;99.90;;;;;;5073861;28;20205;-67
2021/12/31 04:37:14;;;;;;;3.00;2.10;;;11.80;99.90;;;;;;5074100;28;20205;-64
2021/12/31 04:39:41;;;;;;;15.93;11.60;;;11.80;99.90;;;;;;5073487;28;20236;-64
2021/12/31 04:42:07;;;;;;;2.50;2.00;;;11.80;99.90;;;;;;5073400;28;20209;-64
2021/12/31 04:44:34;;;;;;;8.20;5.70;;;11.80;99.90;;;;;;5073525;28;20213;-64
2021/12/31 04:47:01;;;;;;;6.53;4.20;;;11.80;99.90;;;;;;5073989;28;20213;-64
2021/12/31 04:49:27;;;;;;;5.07;3.10;;;11.80;99.90;;;;;;5073436;28;20232;-64
2021/12/31 04:51:54;;;;;;;7.03;4.97;;;11.80;99.90;;;;;;5073881;28;20208;-64
2021/12/31 04:54:23;;;;;;;5.00;3.17;;;11.80;99.90;;;;;;5073157;28;20201;-64
2021/12/31 04:56:52;;;;;;;7.87;6.30;;;11.80;99.90;;;;;;5073378;28;20303;-65
2021/12/31 04:59:19;;;;;;;12.73;8.50;;;11.70;99.90;;;;;;5073292;28;20270;-64
2021/12/31 05:01:47;;;;;;;3.20;2.60;;;11.60;99.90;;;;;;5073351;28;20292;-64
2021/12/31 05:04:14;;;;;;;12.77;9.67;;;11.40;99.90;;;;;;5073124;28;20231;-64
2021/12/31 05:06:41;;;;;;;7.27;4.77;;;11.20;99.90;;;;;;5073066;28;20216;-64
2021/12/31 05:09:07;;;;;;;7.60;3.83;;;11.00;99.90;;;;;;5072857;28;20278;-64
2021/12/31 05:11:36;;;;;;;6.33;4.70;;;10.90;99.90;;;;;;5072901;28;20209;-64
2021/12/31 05:14:04;;;;;;;4.83;2.83;;;10.80;99.90;;;;;;5072734;28;20215;-64
2021/12/31 05:16:31;;;;;;;3.93;2.83;;;10.60;99.90;;;;;;5073045;28;20248;-64
2021/12/31 05:18:58;;;;;;;5.57;3.30;;;10.60;99.90;;;;;;5072274;28;20395;-65
2021/12/31 05:21:24;;;;;;;4.80;2.47;;;10.60;99.90;;;;;;5072833;28;20204;-65
2021/12/31 05:23:51;;;;;;;5.27;2.27;;;10.70;99.90;;;;;;5072429;28;20258;-65
2021/12/31 05:26:18;;;;;;;8.30;3.27;;;10.70;99.90;;;;;;5072887;28;20209;-65
2021/12/31 05:28:46;;;;;;;5.03;2.80;;;10.70;99.90;;;;;;5072515;28;20708;-65
2021/12/31 05:31:12;;;;;;;4.93;3.63;;;10.70;99.90;;;;;;5072804;28;20205;-65
2021/12/31 05:33:39;;;;;;;6.37;2.93;;;10.70;99.90;;;;;;5072330;28;20665;-65
2021/12/31 05:36:06;;;;;;;6.87;5.10;;;10.80;99.90;;;;;;5072569;28;20291;-65
2021/12/31 05:38:33;;;;;;;5.20;3.70;;;10.80;99.90;;;;;;5072354;28;20233;-65
2021/12/31 05:40:59;;;;;;;8.47;3.53;;;10.80;99.90;;;;;;5072591;28;20212;-65
2021/12/31 05:43:26;;;;;;;6.03;3.03;;;10.70;99.90;;;;;;5072482;28;20208;-65
2021/12/31 05:45:54;;;;;;;3.30;2.83;;;10.60;99.90;;;;;;5072449;28;20259;-65
2021/12/31 05:48:21;;;;;;;5.13;2.60;;;10.40;99.90;;;;;;5072244;28;20232;-65
2021/12/31 05:50:47;;;;;;;5.63;2.87;;;10.20;99.90;;;;;;5073585;28;20518;-65
2021/12/31 05:53:14;;;;;;;5.83;2.80;;;10.00;99.90;;;;;;5073194;28;20258;-65
2021/12/31 05:55:41;;;;;;;6.90;3.57;;;9.90;99.90;;;;;;5072473;28;20205;-65
2021/12/31 05:58:07;;;;;;;10.07;5.30;;;9.90;99.90;;;;;;5072528;28;20200;-65
2021/12/31 06:00:34;;;;;;;10.83;7.73;;;9.80;99.90;;;;;;5072321;28;20618;-65
2021/12/31 06:03:02;;;;;;;4.87;4.23;;;9.80;99.90;;;;;;5071958;28;20631;-65
2021/12/31 06:05:29;;;;;;;7.37;5.37;;;9.70;99.90;;;;;;5072008;28;20205;-65
2021/12/31 06:07:57;;;;;;;5.30;3.33;;;9.60;99.90;;;;;;5072270;28;20208;-65
2021/12/31 06:10:24;;;;;;;6.60;3.00;;;9.60;99.90;;;;;;5072106;28;20274;-65
2021/12/31 06:12:52;;;;;;;7.80;5.47;;;9.50;99.90;;;;;;5071827;28;20262;-65
2021/12/31 06:15:20;;;;;;;4.93;2.60;;;9.40;99.90;;;;;;5072090;28;20213;-67
2021/12/31 06:17:47;;;;;;;5.23;3.43;;;9.30;99.90;;;;;;5071959;28;20243;-64
2021/12/31 06:20:15;;;;;;;5.30;3.40;;;9.10;99.90;;;;;;5071730;28;20237;-65
2021/12/31 06:22:42;;;;;;;7.80;5.23;;;9.10;99.90;;;;;;5071734;28;20205;-65
2021/12/31 06:25:09;;;;;;;5.27;3.50;;;9.10;99.90;;;;;;5071944;28;20218;-65
2021/12/31 06:27:36;;;;;;;4.83;3.60;;;9.10;99.90;;;;;;5071914;28;20208;-64
2021/12/31 06:30:03;;;;;;;10.73;5.63;;;9.00;99.90;;;;;;5073069;28;20251;-65
2021/12/31 06:32:30;;;;;;;11.17;6.80;;;9.00;99.90;;;;;;5078392;28;20204;-64
2021/12/31 06:34:56;;;;;;;9.40;6.60;;;9.00;99.90;;;;;;5078683;28;20209;-64
2021/12/31 06:37:24;;;;;;;8.20;3.73;;;9.00;99.90;;;;;;5078549;28;20238;-65
2021/12/31 06:39:53;;;;;;;7.43;4.30;;;9.00;99.90;;;;;;5078260;28;20231;-64
2021/12/31 06:42:19;;;;;;;4.70;3.00;;;9.00;99.90;;;;;;5078529;28;20209;-65
2021/12/31 06:44:46;;;;;;;3.93;2.93;;;9.00;99.90;;;;;;5078395;28;20216;-66
2021/12/31 06:47:13;;;;;;;4.90;2.97;;;8.90;99.90;;;;;;5078513;28;20626;-64
2021/12/31 06:49:42;;;;;;;4.20;2.97;;;8.80;99.90;;;;;;5078452;28;20283;-65
2021/12/31 06:52:08;;;;;;;4.37;2.70;;;8.80;99.90;;;;;;5078285;28;20669;-65
2021/12/31 06:54:37;;;;;;;4.13;2.93;;;8.80;99.90;;;;;;5078381;28;20291;-65
2021/12/31 06:57:04;;;;;;;5.17;2.53;;;8.90;99.90;;;;;;5078234;28;20755;-65
2021/12/31 06:59:30;;;;;;;5.07;2.97;;;8.90;99.90;;;;;;5078265;28;20225;-65
2021/12/31 07:01:58;;;;;;;5.07;2.60;;;8.90;99.90;;;;;;5078531;28;20213;-65
2021/12/31 07:04:25;;;;;;;3.97;2.53;;;8.90;99.90;;;;;;5078041;28;20303;-65
2021/12/31 07:06:51;;;;;;;4.20;2.20;;;8.90;99.90;;;;;;5078334;28;20204;-65
2021/12/31 07:09:18;;;;;;;4.67;3.00;;;8.90;99.90;;;;;;5077959;28;20229;-65
2021/12/31 07:11:46;;;;;;;5.40;3.27;;;8.80;99.90;;;;;;5078013;28;20266;-65
2021/12/31 07:14:13;;;;;;;3.23;2.93;;;8.80;99.90;;;;;;5077732;28;20258;-66
2021/12/31 07:16:40;;;;;;;3.43;2.77;;;8.80;99.90;;;;;;5077958;28;20575;-66
2021/12/31 07:19:06;;;;;;;5.23;2.90;;;8.80;99.90;;;;;;5078095;28;20228;-65
2021/12/31 07:21:33;;;;;;;5.23;2.87;;;8.90;99.90;;;;;;5078171;28;20212;-65
2021/12/31 07:24:00;;;;;;;5.27;3.83;;;9.10;99.90;;;;;;5077697;28;20209;-65
2021/12/31 07:26:26;;;;;;;6.77;4.00;;;9.20;99.90;;;;;;5077850;28;20208;-66
2021/12/31 07:28:54;;;;;;;4.70;3.03;;;9.10;99.90;;;;;;5077723;28;20221;-65
2021/12/31 07:31:21;;;;;;;5.50;2.53;;;9.20;99.90;;;;;;5077839;28;20780;-66
2021/12/31 07:33:48;;;;;;;3.87;2.37;;;9.20;99.90;;;;;;5077857;28;20287;-66
2021/12/31 07:36:14;;;;;;;3.00;2.33;;;9.20;99.90;;;;;;5078118;28;20221;-67
2021/12/31 07:38:48;;;;;;;5.63;2.83;;;9.20;99.90;;;;;;5099208;22;20435;-62
2021/12/31 07:41:14;;;;;;;3.83;2.53;;;9.20;99.90;;;;;;5058114;28;20422;-62
2021/12/31 07:43:41;;;;;;;4.77;2.57;;;9.20;99.90;;;;;;5054408;28;20206;-62
2021/12/31 07:46:09;;;;;;;4.43;2.37;;;9.20;99.90;;;;;;5054893;28;20205;-61
2021/12/31 07:48:36;;;;;;;4.90;2.40;;;9.20;99.90;;;;;;5054801;28;20209;-61
2021/12/31 07:51:02;;;;;;;4.20;2.90;;;9.30;99.90;;;;;;5054617;28;20294;-61
2021/12/31 07:53:29;;;;;;;4.10;2.63;;;9.30;99.90;;;;;;5054322;28;20205;-61
2021/12/31 07:55:56;;;;;;;3.33;2.60;;;9.40;99.90;;;;;;5054530;28;20205;-61
2021/12/31 07:58:24;;;;;;;4.57;2.70;;;9.50;99.90;;;;;;5054895;28;20232;-62
2021/12/31 08:00:51;;;;;;;3.80;2.87;;;9.50;99.90;;;;;;5054608;28;20727;-62
2021/12/31 08:03:19;;;;;;;4.03;2.90;;;9.60;99.90;;;;;;5054533;28;20212;-62
2021/12/31 08:05:46;;;;;;;3.00;2.43;;;9.60;99.90;;;;;;5054534;28;20574;-62
2021/12/31 08:08:12;;;;;;;3.10;2.60;;;9.70;99.90;;;;;;5054372;28;20228;-63
2021/12/31 08:10:39;;;;;;;3.83;2.57;;;9.80;99.90;;;;;;5054229;28;20244;-61
2021/12/31 08:13:06;;;;;;;4.30;2.40;;;9.90;99.90;;;;;;5054129;28;20237;-61
2021/12/31 08:15:33;;;;;;;4.00;2.50;;;10.00;99.90;;;;;;5054305;28;20578;-62
2021/12/31 08:18:00;;;;;;;4.50;3.00;;;10.10;99.90;;;;;;5051773;28;20213;-66
2021/12/31 08:20:28;;;;;;;3.70;2.77;;;10.20;99.90;;;;;;5053684;28;20225;-61
2021/12/31 08:22:55;;;;;;;4.60;2.43;;;10.30;99.90;;;;;;5053684;28;20208;-63
2021/12/31 08:25:22;;;;;;;3.90;3.00;;;10.40;99.90;;;;;;5054054;28;20213;-62
2021/12/31 08:27:48;;;;;;;2.43;1.90;;;10.60;99.90;;;;;;5053730;28;20319;-63
2021/12/31 08:30:15;;;;;;;2.67;1.97;;;10.70;99.90;;;;;;5053699;28;20237;-63
2021/12/31 08:32:42;;;;;;;3.30;2.20;;;10.80;99.90;;;;;;5053442;28;20213;-61
2021/12/31 08:35:09;;;;;;;4.03;2.80;;;10.90;99.90;;;;;;5053710;28;20297;-61
2021/12/31 08:37:38;;;;;;;5.50;3.20;;;11.00;99.90;;;;;;5053282;28;20275;-62
2021/12/31 08:40:06;;;;;;;6.50;5.03;;;11.20;99.90;;;;;;5053297;28;20734;-61
2021/12/31 08:42:32;;;;;;;6.93;5.07;;;11.30;99.90;;;;;;5053691;28;20564;-62
2021/12/31 08:44:59;;;;;;;3.70;1.90;;;11.40;99.90;;;;;;5053588;28;20220;-59
2021/12/31 08:47:26;;;;;;;3.07;2.20;;;11.40;99.90;;;;;;5053678;28;20217;-59
2021/12/31 08:49:53;;;;;;;4.17;1.90;;;11.50;99.90;;;;;;5053451;28;20229;-59
2021/12/31 08:52:19;;;;;;;2.60;1.90;;;11.60;99.90;;;;;;5053432;28;20212;-59
2021/12/31 08:54:47;;;;;;;2.60;1.80;;;11.70;99.90;;;;;;5051972;28;20669;-59
2021/12/31 08:57:14;;;;;;;2.33;1.80;;;11.70;99.90;;;;;;5053553;28;20216;-60
2021/12/31 08:59:41;;;;;;;1.90;1.50;;;11.90;99.90;;;;;;5053383;28;20233;-63
2021/12/31 09:02:08;;;;;;;3.60;1.40;;;11.90;99.90;;;;;;5053594;28;20209;-58
2021/12/31 09:04:35;;;;;;;2.47;1.50;;;12.00;99.90;;;;;;5053209;28;20551;-59
2021/12/31 09:07:02;;;;;;;3.13;1.40;;;12.10;99.90;;;;;;5053554;28;20206;-60
2021/12/31 09:09:29;;;;;;;2.27;1.43;;;12.20;99.90;;;;;;5053405;28;20222;-59
2021/12/31 09:11:57;;;;;;;1.60;1.30;;;12.20;99.90;;;;;;5053289;28;20225;-60
2021/12/31 09:14:23;;;;;;;3.10;1.40;;;12.30;99.90;;;;;;5053118;28;20213;-59
2021/12/31 09:16:50;;;;;;;2.20;1.40;;;12.40;99.90;;;;;;5053042;28;20209;-59
2021/12/31 09:19:17;;;;;;;2.20;1.80;;;12.50;99.90;;;;;;5052790;28;20630;-59
2021/12/31 09:21:44;;;;;;;2.30;1.30;;;12.60;99.90;;;;;;5053196;28;20213;-59
2021/12/31 09:24:11;;;;;;;1.77;1.00;;;12.60;99.90;;;;;;5052908;28;20213;-59
2021/12/31 09:26:38;;;;;;;2.33;1.40;;;12.70;99.90;;;;;;5052984;28;20274;-60
2021/12/31 09:29:06;;;;;;;2.90;1.50;;;12.80;99.90;;;;;;5052823;28;20286;-59
2021/12/31 09:31:32;;;;;;;2.50;1.30;;;12.90;99.90;;;;;;5052661;28;20275;-59
2021/12/31 09:33:59;;;;;;;3.53;1.37;;;12.90;99.90;;;;;;5052371;28;20264;-59
2021/12/31 09:36:26;;;;;;;4.43;1.33;;;13.00;99.90;;;;;;5052505;28;20601;-59
2021/12/31 09:38:52;;;;;;;3.03;2.17;;;13.10;99.90;;;;;;5052545;28;20233;-59
2021/12/31 09:41:19;;;;;;;3.23;1.43;;;13.10;99.90;;;;;;5052685;28;20213;-59
2021/12/31 09:43:49;;;;;;;3.87;1.43;;;13.20;99.90;;;;;;5052497;28;20206;-59
2021/12/31 09:46:18;;;;;;;2.27;1.60;;;13.20;99.90;;;;;;5052228;28;20680;-59
2021/12/31 09:48:45;;;;;;;3.27;1.33;;;13.30;99.90;;;;;;5052405;28;20563;-59
2021/12/31 09:51:12;;;;;;;2.77;1.20;;;13.30;99.90;;;;;;5052645;28;20727;-59
2021/12/31 09:53:39;;;;;;;6.30;4.20;;;13.30;99.90;;;;;;5052505;28;20263;-59
2021/12/31 09:56:07;;;;;;;3.77;1.47;;;13.40;99.90;;;;;;5052216;28;20232;-59
2021/12/31 09:58:35;;;;;;;1.60;1.30;;;13.50;99.90;;;;;;5052211;28;20205;-59
2021/12/31 10:01:03;;;;;;;2.50;1.50;;;13.60;99.90;;;;;;5052303;28;20202;-59
2021/12/31 10:03:33;;;;;;;1.87;1.30;;;13.70;99.90;;;;;;5052196;28;20205;-59
2021/12/31 10:06:02;;;;;;;4.17;1.30;;;13.70;99.90;;;;;;5052012;28;20527;-59
2021/12/31 10:08:30;;;;;;;6.50;4.87;;;13.80;99.90;;;;;;5052206;28;20205;-57
2021/12/31 10:11:09;;;;;;;2.70;1.63;;;13.80;99.90;;;;;;5052036;28;20257;-58
2021/12/31 10:13:37;;;;;;;1.87;1.30;;;13.80;99.90;;;;;;5051877;28;20210;-58
2021/12/31 10:16:05;;;;;;;1.20;1.10;;;14.60;99.90;;;;;;5052355;28;20209;-59
2021/12/31 10:18:35;;;;;;;1.37;1.10;;;13.90;99.90;;;;;;5051987;28;20284;-59
2021/12/31 10:21:03;;;;;;;1.40;1.00;;;14.10;99.90;;;;;;5052012;28;20209;-59
2021/12/31 10:23:30;;;;;;;1.10;1.00;;;14.20;99.90;;;;;;5051776;28;20288;-59
2021/12/31 10:26:07;;;;;;;1.20;1.10;;;14.10;99.90;;;;;;5052119;28;20213;-59
2021/12/31 10:28:35;;;;;;;2.40;1.10;;;14.10;99.90;;;;;;5052159;28;20243;-57
2021/12/31 10:31:12;;;;;;;1.00;0.67;;;14.20;99.90;;;;;;5052150;28;20233;-58
2021/12/31 10:33:45;;;;;;;1.87;1.27;;;14.20;99.90;;;;;;5051951;28;20205;-58
2021/12/31 10:36:34;;;;;;;2.50;0.90;;;14.30;99.90;;;;;;5052049;28;20205;-59
2021/12/31 10:39:03;;;;;;;1.67;1.00;;;14.40;99.90;;;;;;5051663;28;20236;-58
2021/12/31 10:41:29;;;;;;;1.73;0.90;;;14.50;99.90;;;;;;5051877;28;20205;-59
2021/12/31 10:43:59;;;;;;;1.30;1.17;;;14.50;99.90;;;;;;5051615;28;20670;-59
2021/12/31 10:46:26;;;;;;;2.33;1.27;;;14.60;99.90;;;;;;5052059;28;20212;-59
2021/12/31 10:48:56;;;;;;;2.75;1.38;;;14.80;99.90;;;;;;5049566;28;21011;-58
2021/12/31 10:51:38;;;;;;;1.27;1.10;;;14.80;99.90;;;;;;5052344;28;20311;-61
2021/12/31 10:54:27;;;;;;;2.13;1.23;;;15.00;99.90;;;;;;5052155;28;20240;-62
2021/12/31 10:56:54;;;;;;;1.60;1.30;;;14.90;99.90;;;;;;5052625;28;20259;-61
2021/12/31 10:59:20;;;;;;;2.17;1.63;;;14.90;99.90;;;;;;5051683;28;20225;-62
2021/12/31 11:01:48;;;;;;;1.80;1.40;;;15.00;99.90;;;;;;5051961;28;20251;-61
2021/12/31 11:04:18;;;;;;;3.10;2.60;;;15.00;99.90;;;;;;5052495;28;20206;-61
2021/12/31 11:06:46;;;;;;;4.03;1.50;;;15.10;99.90;;;;;;5052784;28;20210;-61
2021/12/31 11:09:15;;;;;;;2.27;1.50;;;15.10;99.90;;;;;;5052549;28;20280;-61
2021/12/31 11:11:43;;;;;;;2.50;1.50;;;15.10;99.90;;;;;;5051941;28;20226;-61
2021/12/31 11:14:11;;;;;;;2.17;1.90;;;15.20;99.90;;;;;;5051759;28;20206;-61
2021/12/31 11:16:39;;;;;;;2.63;1.87;;;15.30;99.90;;;;;;5051418;28;20210;-61
2021/12/31 11:19:07;;;;;;;2.73;1.43;;;15.40;99.90;;;;;;5055368;28;20256;-61
2021/12/31 11:21:36;;;;;;;1.50;1.40;;;15.50;99.90;;;;;;5055613;28;20209;-61
2021/12/31 11:24:27;;;;;;;2.20;1.73;;;15.40;99.90;;;;;;5055238;28;20213;-61
2021/12/31 11:26:54;;;;;;;2.97;1.60;;;15.40;99.90;;;;;;5055353;28;20210;-61
2021/12/31 11:29:21;;;;;;;1.77;1.60;;;15.50;99.90;;;;;;5055240;28;20325;-61
2021/12/31 11:31:47;;;;;;;1.40;1.30;;;15.60;99.90;;;;;;5055384;28;20232;-61
2021/12/31 11:34:16;;;;;;;1.60;1.50;;;15.70;99.90;;;;;;5055194;28;20217;-61
2021/12/31 11:36:51;;;;;;;1.90;1.67;;;15.80;99.90;;;;;;5054873;28;20209;-61
2021/12/31 11:39:24;;;;;;;3.03;2.27;;;15.90;99.90;;;;;;5055209;28;20239;-61
2021/12/31 11:41:53;;;;;;;2.10;1.60;;;15.90;99.90;;;;;;5055112;28;20205;-61
2021/12/31 11:44:23;;;;;;;2.33;1.70;;;15.90;99.90;;;;;;5054995;28;20244;-61
2021/12/31 11:46:51;;;;;;;3.37;1.60;;;16.00;99.90;;;;;;5055177;28;20267;-61
2021/12/31 11:49:22;;;;;;;1.60;1.30;;;16.00;99.90;;;;;;5054907;28;20253;-61
2021/12/31 11:52:04;;;;;;;2.50;2.20;;;16.00;99.90;;;;;;5054846;28;20647;-62
2021/12/31 11:54:31;;;;;;;1.63;1.50;;;16.20;99.90;;;;;;5054687;28;20673;-61
2021/12/31 11:57:04;;;;;;;5.87;2.17;;;16.30;99.90;;;;;;5054778;28;20565;-62
2021/12/31 11:59:36;;;;;;;1.97;1.40;;;16.40;99.90;;;;;;5054465;28;20233;-60
2021/12/31 12:02:13;;;;;;;2.37;2.00;;;16.40;99.90;;;;;;5054826;28;20274;-60
2021/12/31 12:04:41;;;;;;;4.33;2.17;;;16.50;99.90;;;;;;5054384;28;20201;-62
2021/12/31 12:07:12;;;;;;;2.20;1.90;;;16.60;99.90;;;;;;5054590;28;20206;-63
2021/12/31 12:10:19;;;;;;;2.97;1.93;;;16.70;99.90;;;;;;5054339;28;20666;-62
2021/12/31 12:12:50;;;;;;;6.17;4.57;;;16.80;99.90;;;;;;5054426;28;20317;-61
2021/12/31 12:15:33;;;;;;;5.17;3.43;;;16.90;99.90;;;;;;5054024;28;20212;-61
2021/12/31 12:18:02;;;;;;;3.00;1.80;;;16.90;99.90;;;;;;5052517;28;20252;-61
2021/12/31 12:20:34;;;;;;;2.17;1.87;;;17.00;99.90;;;;;;5053989;28;20233;-61
2021/12/31 12:23:02;;;;;;;1.80;1.50;;;17.10;99.90;;;;;;5053849;28;20565;-61
2021/12/31 12:25:31;;;;;;;1.87;1.60;;;17.00;99.90;;;;;;5054016;28;20616;-61
2021/12/31 12:28:02;;;;;;;2.57;1.60;;;17.10;99.90;;;;;;5053758;28;20209;-61
2021/12/31 12:30:30;;;;;;;2.00;1.60;;;17.20;99.90;;;;;;5053879;28;20717;-60
2021/12/31 12:33:08;;;;;;;2.95;1.90;;;17.30;99.90;;;;;;5053658;28;20673;-60
2021/12/31 12:35:37;;;;;;;4.22;3.15;;;17.10;99.90;;;;;;5054344;28;20206;-61
2021/12/31 12:38:07;;;;;;;3.03;1.98;;;17.10;99.90;;;;;;5054288;28;20558;-59
2021/12/31 12:40:39;;;;;;;2.30;1.63;;;17.00;99.90;;;;;;5054298;28;20241;-61
2021/12/31 12:43:08;;;;;;;1.90;1.37;;;16.90;99.90;;;;;;5053613;28;20209;-61
2021/12/31 12:45:39;;;;;;;1.73;1.63;;;17.00;99.90;;;;;;5053781;28;20228;-60
2021/12/31 12:48:06;;;;;;;1.90;1.65;;;17.00;99.90;;;;;;5053809;28;20209;-61
2021/12/31 12:50:32;;;;;;;1.57;1.47;;;16.90;99.90;;;;;;5053569;28;20647;-59
2021/12/31 12:52:59;;;;;;;2.23;1.90;;;16.80;99.90;;;;;;5053614;28;20236;-59